Geneva, Ohio
Current Conditions -  °F | °C
As of 6:53 AM on Monday 22 Dec 2014 (Local Time) from KHZY Reporting Station
Clear Clear  
Wind Chill: 18°   Ceiling: Unl
Heat Index: 26°   Visibility: 10mi
Dew Point: 21°   Wind: 7mph
Humidity: 81%   Direction: 150°SSE
Pressure: 30.14"   Gusts: NA
Location:  41.81°N, 80.95°W
Report Text: KHZY 221153Z AUTO 15006KT 10SM CLR M03/M06 A3014 RMK AO2 SLP216 T10331061 11028 21050 55002
Loading
Personal Weather Stations






























Interactive Weather Map New forecast layout! Learn more

10-Day Weather Forecast

Advertisements
Track Severe Weather on mobile